createdAt,value
2023-05-14T00:01:18.724Z,13.12
2023-05-14T00:03:45.228Z,13.12
2023-05-14T00:06:11.717Z,13.08
2023-05-14T00:08:39.412Z,13.08
2023-05-14T00:11:05.869Z,13.07
2023-05-14T00:13:32.274Z,13.06
2023-05-14T00:15:58.682Z,13.07
2023-05-14T00:18:25.205Z,13.05
2023-05-14T00:20:51.775Z,13.00
2023-05-14T00:23:18.183Z,13.02
2023-05-14T00:25:45.853Z,13.03
2023-05-14T00:28:12.319Z,13.00
2023-05-14T00:30:39.002Z,12.99
2023-05-14T00:33:05.825Z,12.99
2023-05-14T00:35:32.436Z,12.95
2023-05-14T00:37:58.848Z,12.94
2023-05-14T00:40:26.614Z,12.96
2023-05-14T00:42:55.094Z,12.96
2023-05-14T00:45:22.021Z,12.95
2023-05-14T00:47:48.756Z,12.88
2023-05-14T00:50:16.341Z,12.93
2023-05-14T00:52:42.855Z,12.93
2023-05-14T00:55:10.613Z,12.92
2023-05-14T00:57:37.533Z,12.88
2023-05-14T01:00:06.936Z,12.88
2023-05-14T01:02:33.619Z,12.87
2023-05-14T01:05:00.490Z,12.84
2023-05-14T01:07:39.232Z,12.76
2023-05-14T01:10:11.628Z,12.77
2023-05-14T01:12:47.270Z,12.75
2023-05-14T01:15:20.841Z,12.71
2023-05-14T01:17:53.653Z,12.74
2023-05-14T01:20:20.517Z,12.74
2023-05-14T01:22:49.024Z,12.71
2023-05-14T01:25:15.472Z,12.69
2023-05-14T01:27:49.211Z,12.69
2023-05-14T01:30:21.833Z,12.64
2023-05-14T01:32:53.624Z,12.66
2023-05-14T01:35:22.284Z,12.64
2023-05-14T01:37:51.051Z,12.59
2023-05-14T01:40:17.782Z,12.58
2023-05-14T01:42:45.305Z,12.56
2023-05-14T01:45:11.970Z,12.57
2023-05-14T01:47:38.429Z,12.54
2023-05-14T01:50:05.883Z,12.53
2023-05-14T01:52:32.304Z,12.51
2023-05-14T01:55:00.286Z,12.51
2023-05-14T01:57:26.758Z,12.48
2023-05-14T01:59:53.282Z,12.47
2023-05-14T02:02:20.089Z,12.49
2023-05-14T02:04:46.564Z,12.47
2023-05-14T02:07:13.003Z,12.46
2023-05-14T02:09:39.419Z,12.42
2023-05-14T02:12:08.511Z,12.46
2023-05-14T02:14:35.085Z,12.46
2023-05-14T02:17:01.523Z,12.40
2023-05-14T02:19:27.932Z,12.49
2023-05-14T02:21:54.347Z,12.45
2023-05-14T02:24:20.976Z,12.45
2023-05-14T02:26:47.541Z,12.45
2023-05-14T02:29:15.300Z,12.47
2023-05-14T02:31:41.748Z,12.45
2023-05-14T02:34:08.479Z,12.45
2023-05-14T02:36:34.913Z,12.47
2023-05-14T02:39:01.332Z,12.46
2023-05-14T02:41:27.760Z,12.45
2023-05-14T02:43:54.434Z,12.39
2023-05-14T02:46:22.493Z,12.41
2023-05-14T02:48:48.916Z,12.39
2023-05-14T02:51:15.338Z,12.37
2023-05-14T02:53:41.878Z,12.36
2023-05-14T02:56:08.312Z,12.36
2023-05-14T02:58:34.776Z,12.35
2023-05-14T03:01:01.389Z,12.31
2023-05-14T03:03:30.590Z,12.31
2023-05-14T03:05:57.558Z,12.32
2023-05-14T03:08:24.146Z,12.31
2023-05-14T03:10:50.596Z,12.28
2023-05-14T03:13:17.022Z,12.23
2023-05-14T03:15:43.476Z,12.19
2023-05-14T03:18:10.133Z,12.22
2023-05-14T03:20:37.972Z,12.19
2023-05-14T03:23:05.548Z,12.17
2023-05-14T03:25:32.016Z,12.16
2023-05-14T03:27:58.399Z,12.16
2023-05-14T03:30:25.080Z,12.17
2023-05-14T03:32:52.130Z,12.14
2023-05-14T03:35:18.854Z,12.13
2023-05-14T03:37:46.661Z,12.13
2023-05-14T03:40:13.078Z,12.09
2023-05-14T03:42:39.433Z,12.11
2023-05-14T03:45:07.344Z,12.09
2023-05-14T03:47:34.111Z,12.10
2023-05-14T03:50:01.124Z,12.09
2023-05-14T03:52:27.630Z,12.04
2023-05-14T03:54:55.337Z,12.06
2023-05-14T03:57:21.798Z,12.08
2023-05-14T03:59:48.249Z,12.09
2023-05-14T04:02:14.890Z,12.11
2023-05-14T04:04:41.540Z,12.10
2023-05-14T04:07:07.987Z,12.12
2023-05-14T04:09:34.662Z,12.14
2023-05-14T04:12:02.371Z,12.16
2023-05-14T04:14:29.686Z,12.18
2023-05-14T04:16:56.118Z,12.22
2023-05-14T04:19:22.553Z,12.22
2023-05-14T04:21:49.205Z,12.26
2023-05-14T04:24:17.070Z,12.30
2023-05-14T04:26:43.463Z,12.34
2023-05-14T04:29:11.267Z,12.34
2023-05-14T04:31:37.726Z,12.37
2023-05-14T04:34:04.170Z,12.41
2023-05-14T04:36:31.584Z,12.44
2023-05-14T04:38:58.029Z,12.48
2023-05-14T04:41:24.441Z,12.51
2023-05-14T04:43:50.856Z,12.55
2023-05-14T04:46:18.660Z,12.60
2023-05-14T04:48:45.038Z,12.65
2023-05-14T04:51:11.492Z,12.70
2023-05-14T04:53:37.881Z,12.74
2023-05-14T04:56:04.371Z,12.81
2023-05-14T04:58:32.137Z,12.85
2023-05-14T05:01:00.197Z,12.93
2023-05-14T05:03:28.158Z,12.97
2023-05-14T05:05:54.652Z,13.09
2023-05-14T05:08:21.024Z,13.21
2023-05-14T05:10:47.415Z,13.33
2023-05-14T05:13:13.872Z,13.46
2023-05-14T05:15:40.286Z,13.55
2023-05-14T05:18:06.937Z,13.66
2023-05-14T05:20:34.776Z,13.94
2023-05-14T05:23:01.230Z,14.15
2023-05-14T05:25:27.736Z,14.48
2023-05-14T05:27:54.136Z,15.34
2023-05-14T05:30:20.540Z,16.62
2023-05-14T05:32:47.006Z,17.67
2023-05-14T05:35:13.484Z,18.92
2023-05-14T05:37:41.246Z,20.12
2023-05-14T05:40:08.867Z,21.01
2023-05-14T05:42:35.336Z,21.53
2023-05-14T05:45:01.802Z,21.94
2023-05-14T05:47:28.240Z,22.31
2023-05-14T05:49:54.682Z,22.57
2023-05-14T05:52:21.218Z,22.49
2023-05-14T05:54:48.981Z,22.45
2023-05-14T05:57:15.339Z,22.51
2023-05-14T05:59:41.738Z,22.34
2023-05-14T06:02:08.205Z,22.15
2023-05-14T06:04:34.739Z,22.11
2023-05-14T06:07:01.461Z,22.32
2023-05-14T06:09:27.884Z,22.09
2023-05-14T06:11:55.592Z,21.92
2023-05-14T06:14:22.024Z,21.54
2023-05-14T06:16:48.496Z,21.17
2023-05-14T06:19:14.946Z,20.89
2023-05-14T06:21:41.428Z,20.78
2023-05-14T06:24:08.220Z,20.87
2023-05-14T06:26:34.747Z,20.61
2023-05-14T06:29:02.721Z,20.10
2023-05-14T06:31:29.204Z,20.09
2023-05-14T06:33:55.660Z,19.58
2023-05-14T06:36:22.175Z,19.20
2023-05-14T06:38:48.691Z,19.31
2023-05-14T06:41:15.092Z,19.26
2023-05-14T06:43:41.501Z,19.50
2023-05-14T06:46:09.215Z,19.63
2023-05-14T06:48:35.713Z,19.63
2023-05-14T06:51:02.111Z,19.69
2023-05-14T06:53:28.613Z,19.72
2023-05-14T06:55:55.020Z,19.87
2023-05-14T06:58:21.477Z,19.87
2023-05-14T07:00:48.162Z,19.96
2023-05-14T07:03:16.158Z,20.13
2023-05-14T07:05:42.605Z,19.86
2023-05-14T07:08:08.963Z,19.67
2023-05-14T07:10:35.465Z,19.87
2023-05-14T07:13:01.886Z,20.09
2023-05-14T07:15:28.302Z,20.17
2023-05-14T07:17:54.763Z,20.18
2023-05-14T07:20:23.151Z,20.22
2023-05-14T07:22:49.858Z,20.13
2023-05-14T07:25:16.484Z,20.12
2023-05-14T07:27:42.932Z,20.24
2023-05-14T07:30:09.810Z,20.01
2023-05-14T07:32:36.267Z,19.94
2023-05-14T07:35:02.730Z,20.08
2023-05-14T07:37:30.545Z,20.23
2023-05-14T07:39:56.993Z,20.51
2023-05-14T07:42:35.329Z,20.47
2023-05-14T07:45:03.202Z,20.67
2023-05-14T07:47:29.786Z,20.62
2023-05-14T07:49:57.212Z,20.58
2023-05-14T07:52:24.170Z,20.74
2023-05-14T07:54:52.166Z,20.89
2023-05-14T07:57:19.010Z,20.88
2023-05-14T07:59:45.552Z,20.92
2023-05-14T08:02:12.051Z,20.95
2023-05-14T08:04:38.697Z,20.95
2023-05-14T08:07:07.063Z,20.92
2023-05-14T08:09:33.504Z,20.93
2023-05-14T08:12:01.286Z,20.50
2023-05-14T08:14:27.783Z,20.17
2023-05-14T08:16:54.559Z,20.41
2023-05-14T08:19:21.324Z,20.50
2023-05-14T08:21:48.260Z,20.61
2023-05-14T08:24:20.859Z,20.65
2023-05-14T08:26:47.240Z,20.82
2023-05-14T08:29:16.488Z,21.10
2023-05-14T08:31:43.507Z,21.39
2023-05-14T08:34:10.055Z,21.53
2023-05-14T08:36:36.452Z,21.60
2023-05-14T08:39:03.006Z,21.68
2023-05-14T08:41:29.864Z,21.62
2023-05-14T08:44:06.213Z,21.44
2023-05-14T08:46:36.128Z,21.57
2023-05-14T08:49:13.371Z,21.73
2023-05-14T08:51:40.174Z,21.57
2023-05-14T08:54:06.569Z,21.24
2023-05-14T08:56:33.489Z,21.27
2023-05-14T08:58:59.897Z,21.28
2023-05-14T09:01:26.933Z,21.74
2023-05-14T09:03:54.838Z,21.70
2023-05-14T09:06:21.840Z,22.16
2023-05-14T09:08:48.407Z,22.44
2023-05-14T09:11:14.789Z,22.11
2023-05-14T09:13:41.262Z,22.17
2023-05-14T09:16:07.767Z,22.34
2023-05-14T09:18:36.016Z,22.37
2023-05-14T09:21:04.481Z,22.18
2023-05-14T09:23:32.645Z,22.21
2023-05-14T09:25:59.055Z,22.48
2023-05-14T09:28:25.702Z,22.55
2023-05-14T09:30:52.239Z,22.23
2023-05-14T09:33:26.251Z,21.75
2023-05-14T09:35:57.633Z,21.36
2023-05-14T09:38:29.078Z,21.05
2023-05-14T09:40:55.532Z,20.72
2023-05-14T09:43:21.915Z,20.50
2023-05-14T09:45:48.468Z,20.24
2023-05-14T09:48:14.969Z,20.07
2023-05-14T09:50:42.327Z,19.98
2023-05-14T09:53:09.364Z,20.43
2023-05-14T09:55:37.904Z,20.44
2023-05-14T09:58:04.806Z,20.15
2023-05-14T10:00:31.969Z,20.07
2023-05-14T10:02:59.191Z,19.95
2023-05-14T10:05:25.801Z,20.27
2023-05-14T10:07:57.013Z,20.61
2023-05-14T10:10:28.989Z,20.23
2023-05-14T10:13:02.506Z,20.01
2023-05-14T10:15:36.620Z,19.80
2023-05-14T10:18:07.713Z,19.58
2023-05-14T10:20:34.830Z,19.36
2023-05-14T10:23:18.102Z,19.28
2023-05-14T10:25:45.435Z,19.22
2023-05-14T10:28:13.293Z,19.18
2023-05-14T10:30:44.285Z,19.11
2023-05-14T10:33:12.513Z,19.09
2023-05-14T10:35:54.840Z,19.02
2023-05-14T10:38:23.287Z,18.99
2023-05-14T10:40:51.537Z,18.95
2023-05-14T10:43:23.381Z,18.95
2023-05-14T10:45:49.741Z,18.95
2023-05-14T10:48:16.327Z,18.95
2023-05-14T10:50:43.447Z,18.94
2023-05-14T10:53:13.034Z,18.92
2023-05-14T10:55:39.472Z,18.99
2023-05-14T10:58:06.010Z,19.20
2023-05-14T11:00:35.369Z,19.93
2023-05-14T11:03:05.040Z,20.05
2023-05-14T11:05:32.232Z,19.97
2023-05-14T11:07:59.704Z,19.91
2023-05-14T11:10:27.342Z,19.76
2023-05-14T11:12:53.763Z,19.68
2023-05-14T11:15:21.998Z,19.61
2023-05-14T11:17:53.293Z,19.54
2023-05-14T11:20:20.712Z,19.50
2023-05-14T11:22:48.224Z,19.45
2023-05-14T11:25:15.343Z,19.39
2023-05-14T11:27:43.636Z,19.34
2023-05-14T11:30:13.562Z,19.34
2023-05-14T11:32:40.124Z,19.35
2023-05-14T11:35:08.638Z,19.34
2023-05-14T11:37:35.150Z,19.34
2023-05-14T11:40:01.975Z,19.36
2023-05-14T11:42:28.423Z,19.30
2023-05-14T11:44:54.874Z,19.28
2023-05-14T11:47:22.129Z,19.36
2023-05-14T11:49:51.190Z,19.41
2023-05-14T11:52:31.072Z,19.44
2023-05-14T11:57:51.660Z,19.29
2023-05-14T12:00:19.195Z,19.23
2023-05-14T12:02:47.984Z,19.25
2023-05-14T12:05:14.462Z,19.25
2023-05-14T12:07:44.462Z,19.04
2023-05-14T12:10:12.078Z,19.11
2023-05-14T12:12:38.516Z,19.10
2023-05-14T12:15:11.342Z,19.11
2023-05-14T12:17:37.924Z,19.11
2023-05-14T12:20:07.955Z,19.14
2023-05-14T12:22:36.866Z,19.22
2023-05-14T12:25:11.438Z,19.28
2023-05-14T12:27:37.856Z,19.33
2023-05-14T12:32:37.733Z,19.47
2023-05-14T12:35:05.047Z,19.51
2023-05-14T12:37:31.706Z,19.55
2023-05-14T12:39:58.110Z,19.56
2023-05-14T12:42:25.876Z,19.44
2023-05-14T12:44:52.267Z,19.44
2023-05-14T12:47:19.094Z,19.57
2023-05-14T12:49:45.608Z,19.67
2023-05-14T12:54:42.934Z,20.40
2023-05-14T12:57:09.639Z,20.63
2023-05-14T12:59:37.478Z,20.88
2023-05-14T13:02:03.911Z,21.02
2023-05-14T13:04:30.415Z,21.14
2023-05-14T13:06:56.935Z,21.07
2023-05-14T13:09:23.379Z,21.14
2023-05-14T13:11:49.738Z,21.18
2023-05-14T13:14:17.046Z,21.12
2023-05-14T13:16:46.012Z,21.00
2023-05-14T13:19:12.550Z,20.89
2023-05-14T13:21:39.008Z,20.69
2023-05-14T13:24:05.880Z,20.51
2023-05-14T13:26:32.340Z,20.27
2023-05-14T13:28:58.745Z,20.11
2023-05-14T13:31:25.233Z,20.05
2023-05-14T13:33:52.979Z,19.89
2023-05-14T13:36:19.435Z,19.76
2023-05-14T13:38:45.866Z,19.65
2023-05-14T13:41:12.322Z,19.59
2023-05-14T13:43:38.769Z,19.58
2023-05-14T13:46:05.689Z,19.57
2023-05-14T13:48:32.344Z,19.57
2023-05-14T13:51:00.087Z,19.54
2023-05-14T13:53:29.307Z,19.55
2023-05-14T13:55:55.711Z,19.58
2023-05-14T13:58:22.829Z,19.58
2023-05-14T14:00:49.348Z,19.58
2023-05-14T14:03:15.759Z,19.62
2023-05-14T14:05:42.246Z,19.62
2023-05-14T14:08:22.716Z,19.70
2023-05-14T14:10:50.334Z,19.73
2023-05-14T14:13:16.736Z,19.75
2023-05-14T14:15:43.285Z,19.75
2023-05-14T14:18:09.703Z,19.75
2023-05-14T14:20:36.256Z,19.80
2023-05-14T14:23:02.726Z,19.85
2023-05-14T14:25:30.633Z,19.82
2023-05-14T14:27:57.160Z,19.91
2023-05-14T14:30:23.753Z,19.93
2023-05-14T14:32:50.766Z,20.02
2023-05-14T14:35:18.762Z,20.18
2023-05-14T14:37:46.241Z,20.34
2023-05-14T14:40:12.802Z,20.35
2023-05-14T14:42:40.548Z,20.30
2023-05-14T14:45:07.824Z,20.24
2023-05-14T14:47:34.364Z,20.14
2023-05-14T14:50:01.001Z,20.11
2023-05-14T14:52:27.978Z,20.08
2023-05-14T14:54:54.966Z,19.99
2023-05-14T14:57:21.426Z,20.06
2023-05-14T14:59:49.267Z,20.08
2023-05-14T15:02:15.974Z,20.07
2023-05-14T15:04:42.505Z,19.99
2023-05-14T15:07:09.200Z,19.97
2023-05-14T15:09:35.708Z,19.83
2023-05-14T15:12:02.209Z,19.82
2023-05-14T15:14:28.853Z,19.78
2023-05-14T15:16:56.634Z,19.78
2023-05-14T15:19:23.210Z,19.74
2023-05-14T15:21:49.755Z,19.69
2023-05-14T15:24:16.236Z,19.62
2023-05-14T15:26:42.790Z,19.59
2023-05-14T15:29:09.263Z,19.59
2023-05-14T15:31:35.834Z,19.57
2023-05-14T15:34:03.628Z,19.58
2023-05-14T15:36:32.840Z,19.52
2023-05-14T15:38:59.678Z,19.49
2023-05-14T15:41:26.148Z,19.46
2023-05-14T15:43:52.592Z,19.48
2023-05-14T15:46:19.039Z,19.47
2023-05-14T15:48:45.543Z,19.46
2023-05-14T15:51:13.804Z,19.44
2023-05-14T15:53:40.324Z,19.38
2023-05-14T15:56:07.432Z,19.39
2023-05-14T15:58:33.869Z,19.37
2023-05-14T16:01:00.299Z,19.36
2023-05-14T16:03:26.797Z,19.33
2023-05-14T16:05:53.362Z,19.30
2023-05-14T16:08:21.129Z,19.31
2023-05-14T16:10:47.538Z,19.30
2023-05-14T16:13:14.051Z,19.33
2023-05-14T16:15:40.607Z,19.31
2023-05-14T16:18:07.109Z,19.31
2023-05-14T16:20:36.205Z,19.26
2023-05-14T16:23:05.286Z,19.19
2023-05-14T16:25:33.225Z,19.36
2023-05-14T16:28:00.307Z,19.52
2023-05-14T16:30:26.994Z,19.60
2023-05-14T16:32:53.515Z,19.69
2023-05-14T16:35:19.960Z,19.77
2023-05-14T16:37:46.451Z,19.82
2023-05-14T16:40:13.527Z,19.76
2023-05-14T16:42:41.531Z,19.78
2023-05-14T16:45:09.124Z,19.71
2023-05-14T16:47:35.674Z,19.62
2023-05-14T16:50:04.076Z,19.60
2023-05-14T16:52:30.519Z,19.57
2023-05-14T16:54:56.941Z,19.45
2023-05-14T16:57:23.310Z,19.28
2023-05-14T16:59:52.846Z,19.11
2023-05-14T17:02:19.446Z,19.01
2023-05-14T17:04:45.991Z,18.92
2023-05-14T17:07:12.504Z,18.75
2023-05-14T17:09:38.883Z,18.67
2023-05-14T17:12:06.238Z,18.53
2023-05-14T17:14:32.698Z,18.43
2023-05-14T17:17:00.468Z,18.35
2023-05-14T17:19:26.846Z,18.28
2023-05-14T17:21:53.261Z,18.25
2023-05-14T17:24:19.795Z,18.04
2023-05-14T17:26:46.269Z,17.90
2023-05-14T17:29:12.702Z,17.78
2023-05-14T17:31:39.202Z,17.60
2023-05-14T17:34:07.021Z,17.47
2023-05-14T17:36:33.540Z,17.36
2023-05-14T17:39:00.161Z,17.16
2023-05-14T17:41:26.572Z,17.05
2023-05-14T17:43:53.064Z,16.91
2023-05-14T17:46:19.521Z,16.82
2023-05-14T17:48:46.838Z,16.73
2023-05-14T17:51:17.792Z,16.68
2023-05-14T17:53:44.230Z,16.60
2023-05-14T17:56:10.806Z,16.54
2023-05-14T17:58:40.007Z,16.44
2023-05-14T18:01:09.431Z,16.38
2023-05-14T18:03:35.924Z,16.35
2023-05-14T18:06:05.572Z,16.26
2023-05-14T18:08:33.358Z,16.16
2023-05-14T18:10:59.858Z,16.16
2023-05-14T18:13:26.340Z,16.09
2023-05-14T18:15:53.005Z,16.00
2023-05-14T18:18:19.682Z,15.96
2023-05-14T18:20:46.064Z,15.91
2023-05-14T18:23:12.448Z,15.87
2023-05-14T18:25:40.190Z,15.80
2023-05-14T18:28:06.699Z,15.78
2023-05-14T18:30:33.140Z,15.75
2023-05-14T18:32:59.694Z,15.69
2023-05-14T18:35:26.428Z,15.66
2023-05-14T18:37:53.585Z,15.60
2023-05-14T18:40:20.192Z,15.56
2023-05-14T18:42:47.924Z,15.53
2023-05-14T18:45:14.442Z,15.49
2023-05-14T18:47:41.168Z,15.46
2023-05-14T18:50:08.518Z,15.45
2023-05-14T18:52:35.048Z,15.42
2023-05-14T18:55:01.467Z,15.40
2023-05-14T18:57:28.037Z,15.37
2023-05-14T18:59:55.747Z,15.34
2023-05-14T19:02:22.244Z,15.29
2023-05-14T19:04:52.796Z,15.27
2023-05-14T19:07:19.798Z,15.21
2023-05-14T19:09:46.289Z,15.18
2023-05-14T19:12:13.142Z,15.15
2023-05-14T19:14:39.629Z,15.10
2023-05-14T19:17:07.463Z,15.04
2023-05-14T19:19:34.029Z,14.98
2023-05-14T19:22:00.464Z,14.95
2023-05-14T19:24:26.919Z,14.88
2023-05-14T19:26:53.334Z,14.86
2023-05-14T19:29:19.793Z,14.83
2023-05-14T19:31:46.245Z,14.79
2023-05-14T19:34:14.071Z,14.73
2023-05-14T19:36:40.550Z,14.69
2023-05-14T19:39:07.154Z,14.65
2023-05-14T19:41:33.645Z,14.63
2023-05-14T19:44:00.109Z,14.59
2023-05-14T19:46:26.622Z,14.58
2023-05-14T19:48:53.025Z,14.55
2023-05-14T19:51:20.821Z,14.56
2023-05-14T19:53:47.202Z,14.52
2023-05-14T19:56:13.653Z,14.52
2023-05-14T19:58:40.144Z,14.51
2023-05-14T20:01:06.634Z,14.46
2023-05-14T20:03:32.998Z,14.45
2023-05-14T20:05:59.465Z,14.47
2023-05-14T20:08:27.281Z,14.44
2023-05-14T20:10:53.706Z,14.40
2023-05-14T20:13:20.552Z,14.39
2023-05-14T20:15:47.460Z,14.35
2023-05-14T20:18:17.024Z,14.28
2023-05-14T20:20:43.391Z,14.23
2023-05-14T20:23:09.884Z,14.23
2023-05-14T20:25:37.622Z,14.19
2023-05-14T20:28:04.208Z,14.09
2023-05-14T20:30:30.817Z,14.05
2023-05-14T20:32:57.414Z,14.09
2023-05-14T20:35:24.203Z,14.03
2023-05-14T20:37:50.836Z,13.97
2023-05-14T20:40:17.558Z,13.90
2023-05-14T20:42:45.339Z,13.81
2023-05-14T20:45:11.793Z,13.79
2023-05-14T20:47:38.348Z,13.61
2023-05-14T20:50:05.788Z,13.67
2023-05-14T20:52:32.209Z,13.60
2023-05-14T20:55:01.415Z,13.52
2023-05-14T20:57:28.412Z,13.43
2023-05-14T20:59:56.164Z,13.42
2023-05-14T21:02:22.973Z,13.33
2023-05-14T21:04:49.589Z,13.29
2023-05-14T21:07:16.118Z,13.25
2023-05-14T21:09:42.544Z,13.18
2023-05-14T21:12:09.694Z,13.11
2023-05-14T21:14:36.110Z,13.04
2023-05-14T21:17:03.966Z,12.94
2023-05-14T21:19:30.403Z,12.89
2023-05-14T21:21:56.788Z,12.82
2023-05-14T21:24:23.187Z,12.75
2023-05-14T21:26:50.639Z,12.70
2023-05-14T21:29:18.085Z,12.63
2023-05-14T21:31:44.506Z,12.63
2023-05-14T21:34:12.300Z,12.52
2023-05-14T21:36:38.773Z,12.47
2023-05-14T21:39:05.258Z,12.45
2023-05-14T21:41:32.041Z,12.40
2023-05-14T21:43:58.470Z,12.36
2023-05-14T21:46:25.089Z,12.32
2023-05-14T21:48:51.677Z,12.28
2023-05-14T21:51:19.443Z,12.23
2023-05-14T21:53:45.857Z,12.18
2023-05-14T21:56:12.245Z,12.15
2023-05-14T21:58:38.701Z,12.12
2023-05-14T22:01:05.359Z,12.05
2023-05-14T22:03:31.781Z,12.04
2023-05-14T22:05:58.236Z,12.03
2023-05-14T22:08:26.035Z,11.94
2023-05-14T22:10:52.503Z,11.97
2023-05-14T22:13:19.112Z,11.95
2023-05-14T22:15:45.621Z,11.90
2023-05-14T22:18:12.114Z,11.83
2023-05-14T22:20:38.617Z,11.78
2023-05-14T22:23:05.046Z,11.79
2023-05-14T22:25:32.859Z,11.79
2023-05-14T22:27:59.301Z,11.84
2023-05-14T22:30:25.751Z,11.90
2023-05-14T22:32:52.805Z,11.91
2023-05-14T22:35:19.208Z,11.89
2023-05-14T22:37:45.631Z,11.90
2023-05-14T22:40:13.035Z,11.88
2023-05-14T22:42:40.766Z,11.82
2023-05-14T22:45:08.267Z,11.76
2023-05-14T22:47:34.724Z,11.68
2023-05-14T22:50:01.112Z,11.59
2023-05-14T22:52:27.535Z,11.53
2023-05-14T22:54:53.936Z,11.48
2023-05-14T22:57:20.361Z,11.42
2023-05-14T22:59:48.076Z,11.39
2023-05-14T23:02:14.519Z,11.35
2023-05-14T23:04:41.108Z,11.35
2023-05-14T23:07:07.614Z,11.34
2023-05-14T23:09:34.058Z,11.33
2023-05-14T23:12:00.497Z,11.22
2023-05-14T23:14:27.101Z,11.24
2023-05-14T23:16:54.834Z,11.19
2023-05-14T23:19:23.461Z,11.17
2023-05-14T23:21:49.928Z,11.08
2023-05-14T23:24:16.333Z,11.09
2023-05-14T23:26:42.912Z,11.06
2023-05-14T23:29:09.384Z,11.05
2023-05-14T23:31:35.886Z,11.00
2023-05-14T23:34:03.681Z,10.98
2023-05-14T23:36:30.190Z,10.94
2023-05-14T23:38:56.948Z,10.88
2023-05-14T23:41:23.397Z,10.83
2023-05-14T23:43:49.834Z,10.80
2023-05-14T23:46:16.421Z,10.72
2023-05-14T23:48:43.190Z,10.73
2023-05-14T23:51:11.441Z,10.68
2023-05-14T23:53:37.886Z,10.65
2023-05-14T23:56:04.386Z,10.62
2023-05-14T23:58:30.926Z,10.59
